createdAt,value
2017-06-10T00:00:30.094Z,14.33
2017-06-10T00:01:42.004Z,14.3
2017-06-10T00:02:54.577Z,14.36
2017-06-10T00:04:07.098Z,14.37
2017-06-10T00:05:19.645Z,14.33
2017-06-10T00:06:32.216Z,14.3
2017-06-10T00:07:44.440Z,14.34
2017-06-10T00:08:56.982Z,14.49
2017-06-10T00:10:09.509Z,14.45
2017-06-10T00:11:22.029Z,14.43
2017-06-10T00:12:34.544Z,14.49
2017-06-10T00:13:46.788Z,14.48
2017-06-10T00:14:59.016Z,14.44
2017-06-10T00:16:11.562Z,14.45
2017-06-10T00:17:24.101Z,14.55
2017-06-10T00:18:36.601Z,14.53
2017-06-10T00:19:49.149Z,14.48
2017-06-10T00:21:01.416Z,14.48
2017-06-10T00:22:13.942Z,14.55
2017-06-10T00:23:26.156Z,14.51
2017-06-10T00:24:38.685Z,14.55
2017-06-10T00:25:50.634Z,14.53
2017-06-10T00:27:03.179Z,14.53
2017-06-10T00:28:15.413Z,14.59
2017-06-10T00:29:27.641Z,14.58
2017-06-10T00:30:39.884Z,14.55
2017-06-10T00:31:52.109Z,14.53
2017-06-10T00:33:04.348Z,14.61
2017-06-10T00:34:16.854Z,14.55
2017-06-10T00:35:29.375Z,14.59
2017-06-10T00:36:41.910Z,14.53
2017-06-10T00:37:54.457Z,14.55
2017-06-10T00:39:07.002Z,14.58
2017-06-10T00:40:19.530Z,14.59
2017-06-10T00:41:32.073Z,14.53
2017-06-10T00:42:44.615Z,14.49
2017-06-10T00:43:57.168Z,14.44
2017-06-10T00:45:09.684Z,14.41
2017-06-10T00:46:22.235Z,14.45
2017-06-10T00:47:34.759Z,14.4
2017-06-10T00:48:47.301Z,14.51
2017-06-10T00:49:59.840Z,14.45
2017-06-10T00:51:12.088Z,14.48
2017-06-10T00:52:24.315Z,14.44
2017-06-10T00:53:36.536Z,14.44
2017-06-10T00:54:49.081Z,14.43
2017-06-10T00:56:01.320Z,14.49
2017-06-10T00:57:13.844Z,14.41
2017-06-10T00:58:26.369Z,14.44
2017-06-10T00:59:38.918Z,14.52
2017-06-10T01:00:51.141Z,14.49
2017-06-10T01:02:03.638Z,14.53
2017-06-10T01:03:16.180Z,14.51
2017-06-10T01:04:28.440Z,14.45
2017-06-10T01:05:40.989Z,14.45
2017-06-10T01:06:53.236Z,14.41
2017-06-10T01:08:05.757Z,14.44
2017-06-10T01:09:17.685Z,14.53
2017-06-10T01:10:29.929Z,14.51
2017-06-10T01:11:42.466Z,14.52
2017-06-10T01:12:54.720Z,14.49
2017-06-10T01:14:07.233Z,14.53
2017-06-10T01:15:19.762Z,14.55
2017-06-10T01:16:32.283Z,14.48
2017-06-10T01:17:44.497Z,14.53
2017-06-10T01:18:56.731Z,14.55
2017-06-10T01:20:09.263Z,14.49
2017-06-10T01:21:21.820Z,14.52
2017-06-10T01:22:34.036Z,14.58
2017-06-10T01:23:46.276Z,14.61
2017-06-10T01:24:58.516Z,14.51
2017-06-10T01:26:10.775Z,14.59
2017-06-10T01:27:23.314Z,14.52
2017-06-10T01:28:35.863Z,14.58
2017-06-10T01:29:48.430Z,14.59
2017-06-10T01:31:00.958Z,14.52
2017-06-10T01:32:13.475Z,14.52
2017-06-10T01:33:25.725Z,14.58
2017-06-10T01:34:38.222Z,14.55
2017-06-10T01:35:50.753Z,14.55
2017-06-10T01:37:02.966Z,14.58
2017-06-10T01:38:15.488Z,14.55
2017-06-10T01:39:28.048Z,14.52
2017-06-10T01:40:40.571Z,14.59
2017-06-10T01:41:53.114Z,14.58
2017-06-10T01:43:05.660Z,14.61
2017-06-10T01:44:17.889Z,14.51
2017-06-10T01:45:30.405Z,14.52
2017-06-10T01:46:42.956Z,14.58
2017-06-10T01:47:55.504Z,14.52
2017-06-10T01:49:08.025Z,14.49
2017-06-10T01:50:20.248Z,14.53
2017-06-10T01:51:32.765Z,14.52
2017-06-10T01:52:45.277Z,14.49
2017-06-10T01:53:57.505Z,14.52
2017-06-10T01:55:10.052Z,14.55
2017-06-10T01:56:22.294Z,14.63
2017-06-10T01:57:34.819Z,14.55
2017-06-10T01:58:47.035Z,14.62
2017-06-10T01:59:59.264Z,14.62
2017-06-10T02:01:11.507Z,14.58
2017-06-10T02:02:24.020Z,14.67
2017-06-10T02:03:35.948Z,14.62
2017-06-10T02:04:48.211Z,14.7
2017-06-10T02:06:00.443Z,14.71
2017-06-10T02:07:12.982Z,14.66
2017-06-10T02:08:25.228Z,14.67
2017-06-10T02:09:37.182Z,14.63
2017-06-10T02:10:49.442Z,14.68
2017-06-10T02:12:01.994Z,14.68
2017-06-10T02:13:14.216Z,14.63
2017-06-10T02:14:26.458Z,14.63
2017-06-10T02:15:38.660Z,14.73
2017-06-10T02:16:51.207Z,14.63
2017-06-10T02:18:03.770Z,14.61
2017-06-10T02:19:16.318Z,14.66
2017-06-10T02:20:28.891Z,14.63
2017-06-10T02:21:41.116Z,14.63
2017-06-10T02:22:53.379Z,14.71
2017-06-10T02:24:05.925Z,14.68
2017-06-10T02:25:18.474Z,14.77
2017-06-10T02:26:31.336Z,14.74
2017-06-10T02:27:43.587Z,14.73
2017-06-10T02:28:56.137Z,14.77
2017-06-10T02:30:08.704Z,14.77
2017-06-10T02:31:20.908Z,14.78
2017-06-10T02:32:33.478Z,14.77
2017-06-10T02:33:45.721Z,14.77
2017-06-10T02:34:58.234Z,14.86
2017-06-10T02:36:10.458Z,14.81
2017-06-10T02:37:22.968Z,14.82
2017-06-10T02:38:35.500Z,14.9
2017-06-10T02:39:48.030Z,14.85
2017-06-10T02:41:00.605Z,14.87
2017-06-10T02:42:12.542Z,14.94
2017-06-10T02:43:25.067Z,14.92
2017-06-10T02:44:37.009Z,14.87
2017-06-10T02:45:49.531Z,14.92
2017-06-10T02:47:01.769Z,14.87
2017-06-10T02:48:14.298Z,14.9
2017-06-10T02:49:26.840Z,14.93
2017-06-10T02:50:39.089Z,14.89
2017-06-10T02:51:51.629Z,14.94
2017-06-10T02:53:04.185Z,14.82
2017-06-10T02:54:16.730Z,14.78
2017-06-10T02:55:29.293Z,14.78
2017-06-10T02:56:41.794Z,14.78
2017-06-10T02:57:54.334Z,14.73
2017-06-10T02:59:06.834Z,14.61
2017-06-10T03:00:19.062Z,14.68
2017-06-10T03:01:31.286Z,14.62
2017-06-10T03:02:43.844Z,14.66
2017-06-10T03:03:56.670Z,14.53
2017-06-10T03:05:09.211Z,14.52
2017-06-10T03:06:21.728Z,14.55
2017-06-10T03:07:34.275Z,14.49
2017-06-10T03:08:46.844Z,14.43
2017-06-10T03:09:59.066Z,14.34
2017-06-10T03:11:11.315Z,14.37
2017-06-10T03:12:23.844Z,14.31
2017-06-10T03:13:36.390Z,14.31
2017-06-10T03:14:48.953Z,14.23
2017-06-10T03:16:01.472Z,14.25
2017-06-10T03:17:13.394Z,14.18
2017-06-10T03:18:25.926Z,14.11
2017-06-10T03:19:37.859Z,14.01
2017-06-10T03:20:50.415Z,14.05
2017-06-10T03:22:02.663Z,14.03
2017-06-10T03:23:15.199Z,13.87
2017-06-10T03:24:27.720Z,13.87
2017-06-10T03:25:40.524Z,13.94
2017-06-10T03:26:52.759Z,13.89
2017-06-10T03:28:05.265Z,13.86
2017-06-10T03:29:17.533Z,13.85
2017-06-10T03:30:29.774Z,13.85
2017-06-10T03:31:42.304Z,13.79
2017-06-10T03:32:54.841Z,13.82
2017-06-10T03:34:07.070Z,13.78
2017-06-10T03:35:19.280Z,13.68
2017-06-10T03:36:31.490Z,13.62
2017-06-10T03:37:43.722Z,13.67
2017-06-10T03:38:55.956Z,13.67
2017-06-10T03:40:08.192Z,13.6
2017-06-10T03:41:20.709Z,13.55
2017-06-10T03:42:32.907Z,13.5
2017-06-10T03:43:44.853Z,13.49
2017-06-10T03:44:57.385Z,13.54
2017-06-10T03:46:09.626Z,13.55
2017-06-10T03:47:22.142Z,13.49
2017-06-10T03:48:34.667Z,13.49
2017-06-10T03:49:47.189Z,13.49
2017-06-10T03:50:59.415Z,13.46
2017-06-10T03:52:11.931Z,13.49
2017-06-10T03:53:24.469Z,13.42
2017-06-10T03:54:36.690Z,13.47
2017-06-10T03:55:49.235Z,13.45
2017-06-10T03:57:01.767Z,13.45
2017-06-10T03:58:14.313Z,13.43
2017-06-10T03:59:26.861Z,13.45
2017-06-10T04:00:39.434Z,13.39
2017-06-10T04:01:51.369Z,13.37
2017-06-10T04:03:03.914Z,13.37
2017-06-10T04:04:16.443Z,13.36
2017-06-10T04:05:28.711Z,13.39
2017-06-10T04:06:41.228Z,13.36
2017-06-10T04:07:53.774Z,13.33
2017-06-10T04:09:06.298Z,13.36
2017-06-10T04:10:18.851Z,13.31
2017-06-10T04:11:31.065Z,13.31
2017-06-10T04:12:43.590Z,13.3
2017-06-10T04:13:56.162Z,13.28
2017-06-10T04:15:08.102Z,13.3
2017-06-10T04:16:20.353Z,13.3
2017-06-10T04:17:32.891Z,13.3
2017-06-10T04:18:45.470Z,13.31
2017-06-10T04:19:58.333Z,13.36
2017-06-10T04:21:10.562Z,13.28
2017-06-10T04:22:23.096Z,13.23
2017-06-10T04:23:35.008Z,13.2
2017-06-10T04:24:47.529Z,13.27
2017-06-10T04:26:00.064Z,13.31
2017-06-10T04:27:12.637Z,13.26
2017-06-10T04:28:25.176Z,13.36
2017-06-10T04:29:37.749Z,13.26
2017-06-10T04:30:49.974Z,13.3
2017-06-10T04:32:02.539Z,13.33
2017-06-10T04:33:15.067Z,13.33
2017-06-10T04:34:27.591Z,13.36
2017-06-10T04:35:39.814Z,13.37
2017-06-10T04:36:52.333Z,13.46
2017-06-10T04:38:04.846Z,13.37
2017-06-10T04:39:17.067Z,13.37
2017-06-10T04:40:29.286Z,13.45
2017-06-10T04:41:42.113Z,13.4
2017-06-10T04:42:54.363Z,13.43
2017-06-10T04:44:06.896Z,13.49
2017-06-10T04:45:19.122Z,13.46
2017-06-10T04:46:31.643Z,13.49
2017-06-10T04:47:43.886Z,13.47
2017-06-10T04:48:55.521Z,13.46
2017-06-10T04:50:07.763Z,13.5
2017-06-10T04:51:20.009Z,13.52
2017-06-10T04:52:32.256Z,13.45
2017-06-10T04:53:44.501Z,13.55
2017-06-10T04:54:57.023Z,13.54
2017-06-10T04:56:09.539Z,13.54
2017-06-10T04:57:21.753Z,13.57
2017-06-10T04:58:34.299Z,13.58
2017-06-10T04:59:46.848Z,13.58
2017-06-10T05:00:59.373Z,13.64
2017-06-10T05:02:11.912Z,13.62
2017-06-10T05:03:24.436Z,13.64
2017-06-10T05:04:36.978Z,13.64
2017-06-10T05:05:49.504Z,13.62
2017-06-10T05:07:01.728Z,13.7
2017-06-10T05:08:14.276Z,13.76
2017-06-10T05:09:26.840Z,13.8
2017-06-10T05:10:39.357Z,13.8
2017-06-10T05:11:51.904Z,13.89
2017-06-10T05:13:04.466Z,13.87
2017-06-10T05:14:16.997Z,13.91
2017-06-10T05:15:29.227Z,13.97
2017-06-10T05:16:41.462Z,14.07
2017-06-10T05:17:53.712Z,14.3
2017-06-10T05:19:06.228Z,14.3
2017-06-10T05:20:18.775Z,14.43
2017-06-10T05:21:31.299Z,14.66
2017-06-10T05:22:43.549Z,14.68
2017-06-10T05:23:55.766Z,14.85
2017-06-10T05:25:08.011Z,15
2017-06-10T05:26:20.259Z,15.18
2017-06-10T05:27:32.509Z,15.33
2017-06-10T05:28:45.030Z,15.66
2017-06-10T05:29:56.946Z,15.8
2017-06-10T05:31:09.200Z,16.13
2017-06-10T05:32:21.441Z,16.28
2017-06-10T05:33:33.965Z,16.44
2017-06-10T05:34:46.227Z,16.49
2017-06-10T05:35:58.778Z,16.64
2017-06-10T05:37:10.704Z,16.62
2017-06-10T05:38:23.264Z,16.72
2017-06-10T05:39:35.823Z,16.61
2017-06-10T05:40:48.080Z,16.64
2017-06-10T05:42:00.613Z,16.62
2017-06-10T05:43:12.883Z,16.62
2017-06-10T05:44:25.447Z,16.58
2017-06-10T05:45:37.693Z,16.51
2017-06-10T05:46:50.197Z,16.46
2017-06-10T05:48:02.759Z,16.43
2017-06-10T05:49:15.265Z,16.5
2017-06-10T05:50:27.826Z,16.44
2017-06-10T05:51:40.356Z,16.43
2017-06-10T05:52:52.577Z,16.32
2017-06-10T05:54:05.139Z,16.39
2017-06-10T05:55:17.664Z,16.36
2017-06-10T05:56:29.913Z,16.37
2017-06-10T05:57:41.535Z,16.36
2017-06-10T05:58:53.758Z,16.24
2017-06-10T06:00:06.294Z,16.26
2017-06-10T06:01:18.811Z,16.28
2017-06-10T06:02:31.331Z,16.21
2017-06-10T06:03:43.581Z,16.16
2017-06-10T06:04:55.532Z,16.24
2017-06-10T06:06:08.070Z,16.17
2017-06-10T06:07:20.616Z,16.17
2017-06-10T06:08:32.866Z,16.22
2017-06-10T06:09:45.416Z,16.24
2017-06-10T06:10:57.961Z,16.26
2017-06-10T06:12:10.502Z,16.28
2017-06-10T06:13:23.052Z,16.39
2017-06-10T06:14:35.295Z,16.32
2017-06-10T06:15:47.844Z,16.34
2017-06-10T06:17:00.365Z,16.46
2017-06-10T06:18:12.608Z,16.58
2017-06-10T06:19:25.453Z,16.61
2017-06-10T06:20:37.671Z,16.89
2017-06-10T06:21:50.225Z,17.04
2017-06-10T06:23:02.438Z,17.39
2017-06-10T06:24:14.970Z,17.65
2017-06-10T06:25:27.212Z,17.94
2017-06-10T06:26:39.724Z,18.28
2017-06-10T06:27:51.671Z,18.55
2017-06-10T06:29:04.219Z,18.82
2017-06-10T06:30:16.489Z,18.98
2017-06-10T06:31:29.008Z,19.05
2017-06-10T06:32:41.521Z,19.11
2017-06-10T06:33:53.450Z,19.3
2017-06-10T06:35:05.696Z,19.37
2017-06-10T06:36:18.227Z,19.56
2017-06-10T06:37:30.771Z,19.64
2017-06-10T06:38:43.292Z,19.97
2017-06-10T06:39:55.833Z,20.24
2017-06-10T06:41:08.376Z,20.63
2017-06-10T06:42:20.924Z,20.85
2017-06-10T06:43:33.450Z,21.2
2017-06-10T06:44:45.692Z,21.53
2017-06-10T06:45:58.224Z,21.8
2017-06-10T06:47:10.467Z,22.08
2017-06-10T06:48:23.013Z,22.44
2017-06-10T06:49:35.605Z,22.77
2017-06-10T06:50:47.854Z,22.93
2017-06-10T06:52:00.396Z,23.23
2017-06-10T06:53:12.660Z,23.42
2017-06-10T06:54:25.192Z,23.69
2017-06-10T06:55:37.412Z,23.95
2017-06-10T06:56:49.948Z,24.11
2017-06-10T06:58:02.506Z,24.19
2017-06-10T06:59:15.051Z,24.4
2017-06-10T07:00:27.294Z,24.51
2017-06-10T07:01:39.806Z,24.61
2017-06-10T07:02:52.660Z,24.75
2017-06-10T07:04:05.227Z,24.89
2017-06-10T07:05:17.481Z,24.97
2017-06-10T07:06:30.052Z,25.01
2017-06-10T07:07:42.619Z,24.99
2017-06-10T07:08:55.168Z,24.99
2017-06-10T07:10:07.703Z,24.99
2017-06-10T07:11:19.937Z,24.99
2017-06-10T07:12:32.476Z,25.01
2017-06-10T07:13:45.048Z,25.15
2017-06-10T07:14:56.996Z,25.14
2017-06-10T07:16:09.516Z,25.21
2017-06-10T07:17:22.082Z,25.21
2017-06-10T07:18:34.602Z,25.21
2017-06-10T07:19:47.128Z,25
2017-06-10T07:20:59.367Z,24.96
2017-06-10T07:22:11.912Z,24.78
2017-06-10T07:23:24.161Z,24.82
2017-06-10T07:24:36.687Z,24.97
2017-06-10T07:25:49.228Z,25.09
2017-06-10T07:27:01.455Z,25.09
2017-06-10T07:28:13.977Z,25.19
2017-06-10T07:29:26.549Z,25.43
2017-06-10T07:30:39.091Z,25.54
2017-06-10T07:31:51.340Z,25.78
2017-06-10T07:33:03.850Z,25.93
2017-06-10T07:34:16.121Z,26.22
2017-06-10T07:35:28.682Z,26.3
2017-06-10T07:36:41.237Z,26.48
2017-06-10T07:37:53.787Z,26.51
2017-06-10T07:39:06.334Z,26.68
2017-06-10T07:40:18.609Z,26.71
2017-06-10T07:41:31.125Z,26.78
2017-06-10T07:42:43.381Z,26.79
2017-06-10T07:43:55.641Z,26.71
2017-06-10T07:45:07.573Z,26.66
2017-06-10T07:46:20.116Z,26.63
2017-06-10T07:47:32.676Z,26.52
2017-06-10T07:48:45.259Z,26.6
2017-06-10T07:49:57.826Z,26.64
2017-06-10T07:51:10.389Z,26.7
2017-06-10T07:52:22.937Z,26.7
2017-06-10T07:53:35.189Z,26.81
2017-06-10T07:54:47.729Z,26.78
2017-06-10T07:56:00.280Z,27.04
2017-06-10T07:57:12.823Z,27.13
2017-06-10T07:58:25.376Z,27.22
2017-06-10T07:59:37.940Z,27.22
2017-06-10T08:00:50.490Z,27.34
2017-06-10T08:02:03.031Z,27.38
2017-06-10T08:03:15.580Z,27.4
2017-06-10T08:04:28.156Z,27.48
2017-06-10T08:05:40.718Z,27.64
2017-06-10T08:06:53.011Z,27.67
2017-06-10T08:08:05.556Z,27.86
2017-06-10T08:09:18.084Z,28.03
2017-06-10T08:10:30.052Z,28.25
2017-06-10T08:11:42.607Z,28.31
2017-06-10T08:12:55.168Z,28.15
2017-06-10T08:14:07.415Z,27.9
2017-06-10T08:15:19.956Z,27.66
2017-06-10T08:16:32.506Z,27.48
2017-06-10T08:17:45.073Z,27.45
2017-06-10T08:18:57.344Z,27.26
2017-06-10T08:20:09.904Z,27.07
2017-06-10T08:21:22.448Z,27.07
2017-06-10T08:22:34.715Z,27.25
2017-06-10T08:23:46.961Z,27.3
2017-06-10T08:24:59.512Z,27.41
2017-06-10T08:26:11.781Z,27.52
2017-06-10T08:27:24.378Z,27.52
2017-06-10T08:28:36.937Z,27.52
2017-06-10T08:29:49.211Z,27.52
2017-06-10T08:31:01.766Z,27.55
2017-06-10T08:32:14.314Z,27.28
2017-06-10T08:33:26.571Z,27.15
2017-06-10T08:34:39.128Z,27
2017-06-10T08:35:51.695Z,26.93
2017-06-10T08:37:04.263Z,26.71
2017-06-10T08:38:16.829Z,26.52
2017-06-10T08:39:29.408Z,26.29
2017-06-10T08:40:41.954Z,26.23
2017-06-10T08:41:54.492Z,25.95
2017-06-10T08:43:06.750Z,25.96
2017-06-10T08:44:19.314Z,26.01
2017-06-10T08:45:31.880Z,26.16
2017-06-10T08:46:44.126Z,26.42
2017-06-10T08:47:56.356Z,26.42
2017-06-10T08:49:08.910Z,26.23
2017-06-10T08:50:21.446Z,25.98
2017-06-10T08:51:33.672Z,25.92
2017-06-10T08:52:46.230Z,25.86
2017-06-10T08:53:58.462Z,25.96
2017-06-10T08:55:10.422Z,25.92
2017-06-10T08:56:22.951Z,26.16
2017-06-10T08:57:35.222Z,26.37
2017-06-10T08:58:47.786Z,26.36
2017-06-10T09:00:00.338Z,26.48
2017-06-10T09:01:12.905Z,26.49
2017-06-10T09:02:25.456Z,26.45
2017-06-10T09:03:37.422Z,26.41
2017-06-10T09:04:49.369Z,26.3
2017-06-10T09:06:01.965Z,26.08
2017-06-10T09:07:14.214Z,26.1
2017-06-10T09:08:26.764Z,26.1
2017-06-10T09:09:39.053Z,26.22
2017-06-10T09:10:51.594Z,26.36
2017-06-10T09:12:03.843Z,26.53
2017-06-10T09:13:15.521Z,26.73
2017-06-10T09:14:28.089Z,26.82
2017-06-10T09:15:40.635Z,26.82
2017-06-10T09:16:52.924Z,26.85
2017-06-10T09:18:05.480Z,26.73
2017-06-10T09:19:18.054Z,26.93
2017-06-10T09:20:30.611Z,27.13
2017-06-10T09:21:43.196Z,27.11
2017-06-10T09:22:55.758Z,27.08
2017-06-10T09:24:08.306Z,26.98
2017-06-10T09:25:20.853Z,26.68
2017-06-10T09:26:33.402Z,26.53
2017-06-10T09:27:45.944Z,26.36
2017-06-10T09:28:58.168Z,26.19
2017-06-10T09:30:10.731Z,26.04
2017-06-10T09:31:23.278Z,26.04
2017-06-10T09:32:35.835Z,25.89
2017-06-10T09:33:48.391Z,25.83
2017-06-10T09:35:00.941Z,25.76
2017-06-10T09:36:13.184Z,25.63
2017-06-10T09:37:25.129Z,25.52
2017-06-10T09:38:37.684Z,25.36
2017-06-10T09:39:50.231Z,25.18
2017-06-10T09:41:02.802Z,25.03
2017-06-10T09:42:15.043Z,24.96
2017-06-10T09:43:27.608Z,24.82
2017-06-10T09:44:39.855Z,24.74
2017-06-10T09:45:52.104Z,24.58
2017-06-10T09:47:04.025Z,24.46
2017-06-10T09:48:16.271Z,24.24
2017-06-10T09:49:28.824Z,24.21
2017-06-10T09:50:41.064Z,24.11
2017-06-10T09:51:53.614Z,24.16
2017-06-10T09:53:06.162Z,24.37
2017-06-10T09:54:18.722Z,24.44
2017-06-10T09:55:31.297Z,24.71
2017-06-10T09:56:43.592Z,25.21
2017-06-10T09:57:55.839Z,25.46
2017-06-10T09:59:08.393Z,25.81
2017-06-10T10:00:20.956Z,25.95
2017-06-10T10:01:33.530Z,26.1
2017-06-10T10:02:46.076Z,26.23
2017-06-10T10:03:58.622Z,26.45
2017-06-10T10:05:11.160Z,26.6
2017-06-10T10:06:23.743Z,26.81
2017-06-10T10:07:35.689Z,27.15
2017-06-10T10:08:48.258Z,27.41
2017-06-10T10:10:00.801Z,27.76
2017-06-10T10:11:12.772Z,28.06
2017-06-10T10:12:24.993Z,28.31
2017-06-10T10:13:37.556Z,28.68
2017-06-10T10:14:49.790Z,28.96
2017-06-10T10:16:02.334Z,29.22
2017-06-10T10:17:14.881Z,29.65
2017-06-10T10:18:27.768Z,29.95
2017-06-10T10:19:40.036Z,30.27
2017-06-10T10:20:52.294Z,30.46
2017-06-10T10:22:04.865Z,30.56
2017-06-10T10:23:17.135Z,30.58
2017-06-10T10:24:29.430Z,30.65
2017-06-10T10:25:41.978Z,30.71
2017-06-10T10:26:54.237Z,30.8
2017-06-10T10:28:06.794Z,30.76
2017-06-10T10:29:19.365Z,30.56
2017-06-10T10:30:31.325Z,30.56
2017-06-10T10:31:43.881Z,30.58
2017-06-10T10:32:56.440Z,30.69
2017-06-10T10:34:08.366Z,30.69
2017-06-10T10:35:20.893Z,30.7
2017-06-10T10:36:33.437Z,30.55
2017-06-10T10:37:45.653Z,30.44
2017-06-10T10:38:58.203Z,30.38
2017-06-10T10:40:11.053Z,30.36
2017-06-10T10:41:23.616Z,30.56
2017-06-10T10:42:36.157Z,30.69
2017-06-10T10:43:48.679Z,30.83
2017-06-10T10:45:01.250Z,30.81
2017-06-10T10:46:12.924Z,31.07
2017-06-10T10:47:25.181Z,31.1
2017-06-10T10:48:37.713Z,31.33
2017-06-10T10:49:50.245Z,31.37
2017-06-10T10:51:02.812Z,31.39
2017-06-10T10:52:15.059Z,31.29
2017-06-10T10:53:27.310Z,31.13
2017-06-10T10:54:39.853Z,31.07
2017-06-10T10:55:52.397Z,30.96
2017-06-10T10:57:04.922Z,30.91
2017-06-10T10:58:17.479Z,31.1
2017-06-10T10:59:29.426Z,31.22
2017-06-10T11:00:41.659Z,31.41
2017-06-10T11:01:54.243Z,31.25
2017-06-10T11:03:06.500Z,31.23
2017-06-10T11:04:18.747Z,31.17
2017-06-10T11:05:31.293Z,31.1
2017-06-10T11:06:43.576Z,30.93
2017-06-10T11:07:55.830Z,30.8
2017-06-10T11:09:07.772Z,30.54
2017-06-10T11:10:20.044Z,30.31
2017-06-10T11:11:32.573Z,30.02
2017-06-10T11:12:44.832Z,29.79
2017-06-10T11:13:57.095Z,29.67
2017-06-10T11:15:09.701Z,29.46
2017-06-10T11:16:22.247Z,29.52
2017-06-10T11:17:34.814Z,29.55
2017-06-10T11:18:47.045Z,29.65
2017-06-10T11:19:59.635Z,29.71
2017-06-10T11:21:11.886Z,29.83
2017-06-10T11:22:24.123Z,29.87
2017-06-10T11:23:36.673Z,30.13
2017-06-10T11:24:49.247Z,30.35
2017-06-10T11:26:01.772Z,30.62
2017-06-10T11:27:14.019Z,30.74
2017-06-10T11:28:26.582Z,30.91
2017-06-10T11:29:39.137Z,31.11
2017-06-10T11:30:51.381Z,31.17
2017-06-10T11:32:03.969Z,31.33
2017-06-10T11:33:16.514Z,31.39
2017-06-10T11:34:28.768Z,31.59
2017-06-10T11:35:41.359Z,31.78
2017-06-10T11:36:53.904Z,32
2017-06-10T11:38:06.178Z,32.19
2017-06-10T11:39:17.868Z,32.61
2017-06-10T11:40:29.791Z,32.94
2017-06-10T11:41:42.357Z,33.31
2017-06-10T11:42:54.888Z,33.6
2017-06-10T11:44:07.424Z,33.82
2017-06-10T11:45:19.670Z,34.06
2017-06-10T11:46:32.218Z,34.31
2017-06-10T11:47:44.473Z,34.59
2017-06-10T11:48:57.033Z,34.78
2017-06-10T11:50:09.605Z,35
2017-06-10T11:51:21.836Z,35.2
2017-06-10T11:52:34.356Z,35.52
2017-06-10T11:53:46.905Z,35.69
2017-06-10T11:54:59.213Z,35.74
2017-06-10T11:56:11.759Z,35.79
2017-06-10T11:57:24.030Z,35.84
2017-06-10T11:58:36.582Z,35.84
2017-06-10T11:59:49.155Z,35.82
2017-06-10T12:01:01.697Z,35.53
2017-06-10T12:02:13.971Z,35.19
2017-06-10T12:03:26.542Z,34.89
2017-06-10T12:04:39.116Z,34.62
2017-06-10T12:05:51.685Z,34.18
2017-06-10T12:07:03.951Z,33.81
2017-06-10T12:08:16.219Z,33.51
2017-06-10T12:09:28.775Z,33.22
2017-06-10T12:10:41.342Z,32.76
2017-06-10T12:11:53.884Z,32.27
2017-06-10T12:13:05.834Z,32.07
2017-06-10T12:14:18.373Z,31.93
2017-06-10T12:15:30.322Z,31.73
2017-06-10T12:16:42.889Z,31.7
2017-06-10T12:17:55.464Z,31.82
2017-06-10T12:19:08.009Z,31.9
2017-06-10T12:20:20.559Z,32.01
2017-06-10T12:21:32.824Z,32.19
2017-06-10T12:22:45.080Z,32.17
2017-06-10T12:23:57.664Z,32.45
2017-06-10T12:25:09.914Z,32.63
2017-06-10T12:26:22.487Z,32.72
2017-06-10T12:27:35.052Z,32.66
2017-06-10T12:28:47.306Z,32.49
2017-06-10T12:29:59.843Z,32.51
2017-06-10T12:31:12.125Z,32.49
2017-06-10T12:32:24.665Z,32.35
2017-06-10T12:33:36.911Z,32.17
2017-06-10T12:34:49.482Z,32.17
2017-06-10T12:36:02.050Z,32.05
2017-06-10T12:37:14.607Z,32.01
2017-06-10T12:38:26.882Z,31.98
2017-06-10T12:39:39.422Z,31.95
2017-06-10T12:40:51.965Z,31.95
2017-06-10T12:42:04.537Z,31.85
2017-06-10T12:43:16.760Z,31.74
2017-06-10T12:44:29.323Z,31.86
2017-06-10T12:45:41.624Z,31.67
2017-06-10T12:46:54.172Z,31.69
2017-06-10T12:48:06.740Z,31.82
2017-06-10T12:49:19.029Z,31.9
2017-06-10T12:50:31.583Z,31.93
2017-06-10T12:51:44.146Z,32.2
2017-06-10T12:52:56.716Z,32.23
2017-06-10T12:54:08.691Z,32.35
2017-06-10T12:55:21.237Z,32.31
2017-06-10T12:56:33.791Z,32.37
2017-06-10T12:57:46.378Z,32.34
2017-06-10T12:58:58.622Z,32.44
2017-06-10T13:00:10.867Z,32.46
2017-06-10T13:01:23.413Z,32.49
2017-06-10T13:02:35.971Z,32.64
2017-06-10T13:03:48.258Z,32.79
2017-06-10T13:05:00.826Z,32.93
2017-06-10T13:06:13.374Z,33.08
2017-06-10T13:07:25.928Z,33.26
2017-06-10T13:08:38.476Z,33.29
2017-06-10T13:09:51.034Z,33.45
2017-06-10T13:11:03.291Z,33.69
2017-06-10T13:12:15.564Z,33.77
2017-06-10T13:13:27.855Z,33.91
2017-06-10T13:14:40.393Z,34.14
2017-06-10T13:15:52.951Z,34.19
2017-06-10T13:17:05.511Z,34.24
2017-06-10T13:18:18.021Z,34.04
2017-06-10T13:19:30.580Z,33.91
2017-06-10T13:20:42.855Z,33.85
2017-06-10T13:21:55.421Z,33.63
2017-06-10T13:23:07.664Z,33.35
2017-06-10T13:24:20.218Z,33.05
2017-06-10T13:25:32.435Z,32.75
2017-06-10T13:26:44.989Z,32.44
2017-06-10T13:27:57.527Z,32.22
2017-06-10T13:29:10.068Z,32.07
2017-06-10T13:30:22.022Z,31.92
2017-06-10T13:31:34.560Z,31.67
2017-06-10T13:32:47.117Z,31.55
2017-06-10T13:33:59.381Z,31.63
2017-06-10T13:35:11.948Z,31.81
2017-06-10T13:36:24.202Z,31.98
2017-06-10T13:37:36.752Z,32.02
2017-06-10T13:38:48.975Z,32.09
2017-06-10T13:40:01.531Z,32.19
2017-06-10T13:41:13.465Z,32.38
2017-06-10T13:42:26.009Z,32.44
2017-06-10T13:43:38.228Z,32.6
2017-06-10T13:44:50.767Z,32.72
2017-06-10T13:46:03.023Z,32.85
2017-06-10T13:47:15.282Z,32.93
2017-06-10T13:48:27.804Z,33.1
2017-06-10T13:49:40.358Z,33.22
2017-06-10T13:50:52.905Z,33.4
2017-06-10T13:52:05.167Z,33.4
2017-06-10T13:53:17.695Z,33.51
2017-06-10T13:54:30.221Z,33.48
2017-06-10T13:55:42.479Z,33.4
2017-06-10T13:56:54.729Z,33.57
2017-06-10T13:58:06.958Z,33.35
2017-06-10T13:59:19.546Z,33.38
2017-06-10T14:00:32.113Z,33.23
2017-06-10T14:01:44.372Z,33.15
2017-06-10T14:02:56.932Z,33.28
2017-06-10T14:04:09.526Z,33.35
2017-06-10T14:05:22.097Z,33.42
2017-06-10T14:06:34.654Z,33.36
2017-06-10T14:07:46.920Z,33.5
2017-06-10T14:08:58.592Z,33.44
2017-06-10T14:10:10.858Z,33.42
2017-06-10T14:11:23.401Z,33.44
2017-06-10T14:12:35.958Z,33.29
2017-06-10T14:13:48.248Z,33.26
2017-06-10T14:15:00.767Z,33.17
2017-06-10T14:16:13.336Z,33.03
2017-06-10T14:17:25.934Z,33.05
2017-06-10T14:18:38.202Z,33.03
2017-06-10T14:19:50.776Z,33.1
2017-06-10T14:21:03.318Z,33.1
2017-06-10T14:22:15.593Z,33.03
2017-06-10T14:23:28.122Z,32.94
2017-06-10T14:24:40.686Z,32.91
2017-06-10T14:25:53.238Z,32.68
2017-06-10T14:27:05.498Z,32.45
2017-06-10T14:28:18.044Z,32.29
2017-06-10T14:29:30.591Z,31.98
2017-06-10T14:30:43.160Z,31.73
2017-06-10T14:31:55.710Z,31.44
2017-06-10T14:33:08.260Z,31.37
2017-06-10T14:34:20.806Z,31.11
2017-06-10T14:35:33.073Z,31.14
2017-06-10T14:36:45.321Z,30.96
2017-06-10T14:37:57.886Z,30.95
2017-06-10T14:39:10.461Z,30.86
2017-06-10T14:40:22.702Z,30.77
2017-06-10T14:41:35.260Z,30.91
2017-06-10T14:42:47.523Z,30.89
2017-06-10T14:44:00.051Z,30.93
2017-06-10T14:45:12.316Z,30.99
2017-06-10T14:46:24.586Z,30.92
2017-06-10T14:47:37.128Z,30.93
2017-06-10T14:48:49.385Z,30.77
2017-06-10T14:50:01.654Z,30.65
2017-06-10T14:51:13.890Z,30.56
2017-06-10T14:52:26.160Z,30.39
2017-06-10T14:53:37.833Z,30.23
2017-06-10T14:54:50.362Z,30.11
2017-06-10T14:56:02.928Z,29.81
2017-06-10T14:57:15.196Z,29.71
2017-06-10T14:58:27.475Z,29.5
2017-06-10T14:59:40.013Z,29.32
2017-06-10T15:00:52.583Z,29.06
2017-06-10T15:02:04.832Z,29
2017-06-10T15:03:17.412Z,28.62
2017-06-10T15:04:29.681Z,28.55
2017-06-10T15:05:42.233Z,28.3
2017-06-10T15:06:54.524Z,28.03
2017-06-10T15:08:06.795Z,27.82
2017-06-10T15:09:19.065Z,27.61
2017-06-10T15:10:31.638Z,27.47
2017-06-10T15:11:43.876Z,27.38
2017-06-10T15:12:56.418Z,27.22
2017-06-10T15:14:08.366Z,27.03
2017-06-10T15:15:20.967Z,26.73
2017-06-10T15:16:33.209Z,26.78
2017-06-10T15:17:45.755Z,26.68
2017-06-10T15:18:58.322Z,26.61
2017-06-10T15:20:10.571Z,26.61
2017-06-10T15:21:22.818Z,26.52
2017-06-10T15:22:35.360Z,26.46
2017-06-10T15:23:47.594Z,26.39
2017-06-10T15:25:00.135Z,26.44
2017-06-10T15:26:11.760Z,26.22
2017-06-10T15:27:24.005Z,26.22
2017-06-10T15:28:36.226Z,26.07
2017-06-10T15:29:48.813Z,25.99
2017-06-10T15:31:01.367Z,25.95
2017-06-10T15:32:13.915Z,25.89
2017-06-10T15:33:25.874Z,25.86
2017-06-10T15:34:38.398Z,25.77
2017-06-10T15:35:50.625Z,25.78